Time;durP1;ratioP1;P1;durP2;ratioP2;P2;SDS_P1;SDS_P2;PMS_P1;PMS_P2;Temp;Humidity;BMP_temperature;BMP_pressure;BME280_temperature;BME280_humidity;BME280_pressure;Samples;Min_cycle;Max_cycle;Signal;HPM_P1;HPM_P2
2022/11/17 00:03:29;;;;;;;6.03;3.50;;;;;;;2.37;100.00;97782.13;4527008;77;21031;-92
2022/11/17 00:09:30;;;;;;;6.15;3.17;;;;;;;2.35;100.00;97774.94;4557159;76;21564;-87
2022/11/17 00:15:32;;;;;;;5.97;3.08;;;;;;;2.35;100.00;97776.29;4548895;76;21037;-86
2022/11/17 00:21:33;;;;;;;5.45;3.22;;;;;;;2.36;100.00;97775.73;4545716;75;21074;-87
2022/11/17 00:27:35;;;;;;;4.22;2.77;;;;;;;2.38;100.00;97779.64;4529841;75;21073;-87
2022/11/17 00:40:41;;;;;;;2.22;1.70;;;;;;;2.42;100.00;97781.08;4544517;75;21098;-87
2022/11/17 00:46:42;;;;;;;3.52;1.72;;;;;;;2.34;100.00;97792.84;4570707;75;21004;-91
2022/11/17 00:59:18;;;;;;;3.02;1.85;;;;;;;2.31;100.00;97792.19;4545147;76;21598;-87
2022/11/17 01:12:00;;;;;;;3.47;2.10;;;;;;;2.29;100.00;97803.91;4552156;75;21054;-88
2022/11/17 01:18:01;;;;;;;4.92;1.87;;;;;;;2.31;100.00;97784.09;4539897;75;21015;-86
2022/11/17 01:24:04;;;;;;;2.83;1.62;;;;;;;2.28;100.00;97771.30;4554697;75;21117;-88
2022/11/17 01:30:17;;;;;;;3.80;1.50;;;;;;;2.22;100.00;97751.89;4547419;75;21018;-88
2022/11/17 01:43:31;;;;;;;2.60;1.62;;;;;;;2.14;100.00;97770.95;4503350;78;21293;-87
2022/11/17 01:49:32;;;;;;;2.20;1.52;;;;;;;2.12;100.00;97771.86;4525358;76;21077;-88
2022/11/17 01:55:42;;;;;;;2.00;1.60;;;;;;;2.13;100.00;97779.61;4506482;76;21053;-86
2022/11/17 02:08:19;;;;;;;2.22;1.52;;;;;;;2.15;100.00;97776.00;4524210;76;21039;-87
2022/11/17 02:14:21;;;;;;;2.92;1.77;;;;;;;2.19;100.00;97780.94;4458463;77;21519;-87
2022/11/17 02:20:39;;;;;;;3.75;1.92;;;;;;;2.20;100.00;97782.50;4459723;77;21027;-89
2022/11/17 02:27:23;;;;;;;2.47;1.50;;;;;;;2.19;100.00;97781.50;4481777;77;21055;-88
2022/11/17 02:33:47;;;;;;;2.85;1.37;;;;;;;2.19;100.00;97774.75;4468301;77;21027;-88
2022/11/17 02:53:49;;;;;;;0.90;0.65;;;;;;;2.09;100.00;97723.41;4305331;80;21170;-85
2022/11/17 02:59:50;;;;;;;1.90;1.15;;;;;;;2.08;100.00;97744.80;4337976;79;21091;-87
2022/11/17 03:13:07;;;;;;;2.12;1.32;;;;;;;2.04;100.00;97755.27;4331594;79;21726;-87
2022/11/17 03:33:49;;;;;;;2.10;1.27;;;;;;;2.00;100.00;97765.20;4471963;78;21089;-88
2022/11/17 03:39:58;;;;;;;1.35;1.10;;;;;;;1.96;100.00;97764.35;4534153;77;21438;-87
2022/11/17 03:46:05;;;;;;;1.67;1.20;;;;;;;1.93;100.00;97765.05;4496901;77;21103;-88
2022/11/17 03:52:07;;;;;;;1.85;1.20;;;;;;;1.93;100.00;97761.00;4451487;77;21925;-87
2022/11/17 04:25:02;;;;;;;2.05;1.30;;;;;;;1.78;100.00;97782.78;4467808;77;21961;-88
2022/11/17 04:31:22;;;;;;;1.77;1.25;;;;;;;1.76;100.00;97776.95;4402119;77;72863;-88
2022/11/17 04:43:59;;;;;;;2.17;1.42;;;;;;;1.80;100.00;97779.19;4141518;84;21045;-88
2022/11/17 04:50:10;;;;;;;1.72;1.27;;;;;;;1.83;100.00;97782.53;4182994;84;20992;-88
2022/11/17 04:56:12;;;;;;;2.10;1.50;;;;;;;1.87;100.00;97779.91;4169130;84;22231;-88
2022/11/17 05:02:13;;;;;;;2.15;1.10;;;;;;;1.91;100.00;97784.84;4172045;84;21026;-88
2022/11/17 05:08:40;;;;;;;1.50;1.15;;;;;;;1.95;100.00;97768.16;4155061;84;21476;-87
2022/11/17 05:14:41;;;;;;;1.20;1.10;;;;;;;1.93;100.00;97774.50;4182402;84;21031;-88
2022/11/17 05:20:42;;;;;;;2.62;1.20;;;;;;;1.93;100.00;97771.21;4159126;84;21393;-88
2022/11/17 05:26:52;;;;;;;1.37;1.22;;;;;;;1.94;100.00;97784.95;4159542;84;21070;-88
2022/11/17 05:40:10;;;;;;;1.55;1.20;;;;;;;1.92;100.00;97789.89;4150959;84;21536;-86
2022/11/17 05:46:18;;;;;;;2.47;1.45;;;;;;;1.95;100.00;97777.05;4168304;84;21010;-88
2022/11/17 05:52:20;;;;;;;1.65;1.27;;;;;;;1.98;100.00;97789.85;4151108;84;21028;-86
2022/11/17 05:58:27;;;;;;;3.05;1.50;;;;;;;1.99;100.00;97780.61;4154393;84;21083;-88
2022/11/17 06:04:29;;;;;;;2.58;1.85;;;;;;;2.00;100.00;97793.00;4156475;84;21830;-87
2022/11/17 06:10:33;;;;;;;3.40;1.90;;;;;;;2.00;100.00;97808.39;4156201;84;21057;-85
2022/11/17 06:23:34;;;;;;;4.53;3.02;;;;;;;1.98;100.00;97822.80;4213991;84;20991;-88
2022/11/17 06:30:19;;;;;;;2.70;1.82;;;;;;;1.95;100.00;97818.09;4179467;84;21812;-88
2022/11/17 06:36:23;;;;;;;1.42;1.22;;;;;;;1.90;100.00;97818.34;4204749;84;21962;-88
2022/11/17 06:48:59;;;;;;;1.90;1.57;;;;;;;1.84;100.00;97838.06;4160005;84;21050;-88
2022/11/17 06:55:00;;;;;;;3.22;1.67;;;;;;;1.86;100.00;97847.16;4161999;84;21150;-87
2022/11/17 07:01:20;;;;;;;3.22;2.20;;;;;;;1.89;100.00;97844.56;4158767;84;21057;-87
2022/11/17 07:07:22;;;;;;;3.02;1.98;;;;;;;1.88;100.00;97863.22;4145619;84;21022;-88
2022/11/17 07:14:19;;;;;;;3.67;2.52;;;;;;;1.80;100.00;97856.64;4167095;84;21002;-86
2022/11/17 07:20:20;;;;;;;3.60;2.30;;;;;;;1.73;100.00;97854.53;4160139;84;21013;-86
2022/11/17 07:26:46;;;;;;;3.67;2.20;;;;;;;1.70;100.00;97853.08;4163110;84;20988;-87
2022/11/17 07:32:48;;;;;;;3.55;1.77;;;;;;;1.67;100.00;97862.66;4142020;84;21523;-86
2022/11/17 07:38:49;;;;;;;3.98;2.90;;;;;;;1.66;100.00;97860.30;4150724;84;21543;-87
2022/11/17 07:44:51;;;;;;;2.40;1.90;;;;;;;1.63;100.00;97866.59;4162322;84;21068;-86
2022/11/17 07:50:55;;;;;;;3.12;2.08;;;;;;;1.65;100.00;97867.60;4164757;84;21083;-86
2022/11/17 08:10:52;;;;;;;2.77;2.20;;;;;;;1.55;100.00;97871.57;4162318;83;21014;-87
2022/11/17 08:16:53;;;;;;;2.43;2.10;;;;;;;1.52;100.00;97855.28;4191431;82;21889;-86
2022/11/17 08:22:55;;;;;;;5.35;2.50;;;;;;;1.53;100.00;97864.38;4179089;84;21582;-86
2022/11/17 08:28:57;;;;;;;2.75;2.05;;;;;;;1.56;100.00;97864.27;4173278;84;21031;-86
2022/11/17 08:34:59;;;;;;;7.17;3.10;;;;;;;1.59;100.00;97873.82;4162545;82;20999;-87
2022/11/17 08:54:51;;;;;;;2.58;1.90;;;;;;;1.62;100.00;97883.13;4138124;84;21090;-86
2022/11/17 09:01:16;;;;;;;3.30;2.40;;;;;;;1.63;100.00;97897.41;4175682;84;21042;-86
2022/11/17 09:20:42;;;;;;;6.25;2.50;;;;;;;1.65;100.00;97890.53;4149888;83;21070;-86
2022/11/17 09:26:43;;;;;;;3.87;2.40;;;;;;;1.63;100.00;97885.27;4172824;82;21061;-86
2022/11/17 10:00:27;;;;;;;8.45;2.85;;;;;;;1.95;100.00;97894.45;4015677;86;21880;-86
2022/11/17 10:20:17;;;;;;;3.95;2.85;;;;;;;1.69;100.00;97889.29;4004578;86;21069;-86
2022/11/17 10:33:12;;;;;;;3.55;2.77;;;;;;;1.73;100.00;97890.95;4039956;84;21098;-86
2022/11/17 10:46:28;;;;;;;4.10;3.25;;;;;;;1.64;100.00;97896.48;4046422;85;21916;-86
2022/11/17 10:52:29;;;;;;;3.75;3.15;;;;;;;1.64;100.00;97901.11;4116831;83;21926;-88
2022/11/17 10:58:55;;;;;;;3.42;2.75;;;;;;;1.57;100.00;97899.55;4227284;83;21041;-86
2022/11/17 11:05:17;;;;;;;3.37;2.17;;;;;;;1.49;100.00;97898.56;4179647;83;20984;-87
2022/11/17 11:11:41;;;;;;;4.33;3.20;;;;;;;1.50;100.00;97893.38;4225843;82;21203;-86
2022/11/17 11:58:21;;;;;;;5.50;3.67;;;;;;;1.52;100.00;97909.22;4115018;83;21121;-85
2022/11/17 12:12:37;;;;;;;6.42;3.70;;;;;;;1.55;100.00;97902.59;4118456;84;22057;-85
2022/11/17 12:25:25;;;;;;;5.95;4.22;;;;;;;1.63;100.00;97896.27;4067135;85;21047;-85
2022/11/17 12:31:42;;;;;;;8.25;4.60;;;;;;;1.69;100.00;97906.83;4039816;85;21153;-87
2022/11/17 12:37:47;;;;;;;6.78;4.20;;;;;;;1.72;100.00;97912.88;4026249;86;21980;-84
2022/11/17 12:43:48;;;;;;;8.25;4.78;;;;;;;1.67;100.00;97913.12;4068271;86;21035;-85
2022/11/17 12:50:38;;;;;;;6.75;3.75;;;;;;;1.63;100.00;97909.55;4082573;85;21030;-86
2022/11/17 13:04:37;;;;;;;8.35;4.45;;;;;;;1.56;100.00;97917.66;3945885;88;21110;-87
2022/11/17 13:11:11;;;;;;;5.97;4.15;;;;;;;1.52;100.00;97913.27;4083985;84;21581;-86
2022/11/17 13:24:36;;;;;;;6.85;4.45;;;;;;;1.48;100.00;97936.66;4108046;84;21442;-86
2022/11/17 13:37:30;;;;;;;5.58;4.00;;;;;;;1.45;100.00;97933.30;4101510;85;21058;-86
2022/11/17 13:43:37;;;;;;;9.83;5.25;;;;;;;1.43;100.00;97943.64;4079546;85;21081;-86
2022/11/17 13:57:15;;;;;;;30.27;11.78;;;;;;;1.45;100.00;97929.26;4093872;85;21058;-86
2022/11/17 14:04:15;;;;;;;39.45;12.47;;;;;;;1.44;100.00;97945.23;4083671;85;21052;-86
2022/11/17 14:10:34;;;;;;;24.90;10.28;;;;;;;1.41;100.00;97943.98;4102660;85;21072;-87
2022/11/17 14:16:46;;;;;;;12.95;6.75;;;;;;;1.35;100.00;97933.77;4085206;85;21015;-86
2022/11/17 14:29:34;;;;;;;8.43;5.58;;;;;;;1.26;100.00;97940.65;4063031;84;21048;-87
2022/11/17 14:35:36;;;;;;;20.48;8.75;;;;;;;1.23;100.00;97929.75;4066231;84;21095;-87
2022/11/17 14:41:39;;;;;;;25.43;9.05;;;;;;;1.18;100.00;97936.16;4112651;85;21108;-87
2022/11/17 14:47:41;;;;;;;14.38;7.08;;;;;;;1.14;100.00;97940.64;4078765;84;21059;-87
2022/11/17 15:07:17;;;;;;;18.17;8.05;;;;;;;0.93;100.00;97927.08;4058177;86;21073;-86
2022/11/17 15:26:50;;;;;;;8.68;6.33;;;;;;;0.75;100.00;97923.81;4054285;86;21043;-87
2022/11/17 15:46:49;;;;;;;10.65;8.03;;;;;;;0.72;100.00;97895.44;3996580;88;21915;-87
2022/11/17 15:59:50;;;;;;;17.77;8.95;;;;;;;0.74;100.00;97890.48;4087369;84;21060;-87
2022/11/17 16:05:52;;;;;;;13.30;8.40;;;;;;;0.75;100.00;97901.50;4056230;85;22271;-87
2022/11/17 16:39:22;;;;;;;13.90;9.88;;;;;;;0.76;100.00;97886.90;4112763;83;21128;-86
2022/11/17 16:45:43;;;;;;;17.90;9.93;;;;;;;0.77;100.00;97889.25;4121886;84;21130;-87
2022/11/17 16:51:57;;;;;;;16.05;10.25;;;;;;;0.76;100.00;97887.70;4074423;85;21521;-86
2022/11/17 17:05:01;;;;;;;15.35;8.55;;;;;;;0.78;100.00;97904.86;4052436;85;21028;-87
2022/11/17 17:11:27;;;;;;;14.05;8.48;;;;;;;0.79;100.00;97915.30;4126280;85;21144;-85
2022/11/17 17:17:33;;;;;;;15.18;9.63;;;;;;;0.79;100.00;97909.12;4095364;85;21552;-87
2022/11/17 17:24:03;;;;;;;18.92;11.10;;;;;;;0.79;100.00;97910.47;4090622;85;21044;-87
2022/11/17 17:30:06;;;;;;;17.48;10.85;;;;;;;0.78;100.00;97920.48;4021621;86;20999;-87
2022/11/17 17:36:17;;;;;;;16.87;10.55;;;;;;;0.80;100.00;97912.83;4073526;84;21090;-86
2022/11/17 17:49:17;;;;;;;20.00;11.93;;;;;;;0.81;100.00;97898.80;4080402;85;21047;-86
2022/11/17 18:02:03;;;;;;;18.00;11.00;;;;;;;0.79;100.00;97910.47;3945688;84;10000205;-87
2022/11/17 18:08:17;;;;;;;20.20;11.73;;;;;;;0.76;100.00;97903.86;4099321;84;21058;-86
2022/11/17 18:14:43;;;;;;;19.73;12.55;;;;;;;0.73;100.00;97892.41;4010139;84;21059;-87
2022/11/17 18:21:16;;;;;;;23.30;12.63;;;;;;;0.72;100.00;97894.09;4122985;84;21155;-86
2022/11/17 18:28:01;;;;;;;21.68;13.18;;;;;;;0.68;100.00;97879.71;4098626;85;21077;-87
2022/11/17 18:34:31;;;;;;;27.00;14.85;;;;;;;0.64;100.00;97894.44;4127781;84;21056;-87
2022/11/17 18:40:54;;;;;;;23.27;13.85;;;;;;;0.63;100.00;97883.97;4106133;83;21023;-86
2022/11/17 18:47:12;;;;;;;29.77;15.10;;;;;;;0.58;100.00;97868.83;4042414;86;21047;-87
2022/11/17 18:53:13;;;;;;;31.57;16.60;;;;;;;0.59;100.00;97881.19;4063819;86;21028;-87
2022/11/17 19:13:09;;;;;;;25.15;16.05;;;;;;;0.55;100.00;97836.42;4088711;86;22050;-88
2022/11/17 19:19:11;;;;;;;31.87;18.27;;;;;;;0.51;100.00;97816.66;4058968;85;21058;-87
2022/11/17 19:25:14;;;;;;;29.90;16.70;;;;;;;0.55;100.00;97833.15;4036752;84;21012;-87
2022/11/17 19:31:38;;;;;;;28.32;16.62;;;;;;;0.58;100.00;97844.59;4016186;85;21061;-86
2022/11/17 19:37:45;;;;;;;29.05;17.65;;;;;;;0.59;100.00;97836.75;4082930;85;21026;-86
2022/11/17 19:43:47;;;;;;;29.92;17.80;;;;;;;0.62;100.00;97845.50;4056977;85;21064;-86
2022/11/17 19:49:55;;;;;;;29.90;17.27;;;;;;;0.64;100.00;97851.90;4016789;86;21094;-86
2022/11/17 19:56:03;;;;;;;32.70;17.98;;;;;;;0.64;100.00;97859.42;4036212;85;21058;-87
2022/11/17 20:08:41;;;;;;;34.05;18.92;;;;;;;0.68;100.00;97859.52;4080237;86;21090;-86
2022/11/17 20:21:30;;;;;;;30.05;17.25;;;;;;;0.62;100.00;97869.74;4077328;85;21991;-87
2022/11/17 20:28:01;;;;;;;32.25;19.05;;;;;;;0.62;100.00;97869.74;4006806;89;21111;-87
2022/11/17 20:34:15;;;;;;;30.72;18.67;;;;;;;0.59;100.00;97862.89;4070379;84;22028;-86
2022/11/17 20:40:16;;;;;;;33.13;18.30;;;;;;;0.56;100.00;97862.22;4044154;85;21071;-87
2022/11/17 20:46:28;;;;;;;30.60;17.45;;;;;;;0.57;100.00;97859.19;4024947;85;21551;-86
2022/11/17 20:59:25;;;;;;;32.55;18.37;;;;;;;0.56;100.00;97856.28;4026788;85;21726;-87
2022/11/17 21:05:42;;;;;;;31.45;17.35;;;;;;;0.51;100.00;97845.73;4061970;85;21091;-87
2022/11/17 21:12:11;;;;;;;37.78;18.98;;;;;;;0.48;100.00;97830.25;4115134;84;21063;-86
2022/11/17 21:18:22;;;;;;;38.60;18.85;;;;;;;0.49;100.00;97833.16;4076469;84;21024;-86
2022/11/17 21:24:32;;;;;;;32.13;19.37;;;;;;;0.49;100.00;97821.04;4118484;84;22194;-87
2022/11/17 21:30:42;;;;;;;39.60;20.27;;;;;;;0.51;100.00;97808.58;4069483;85;21139;-87
2022/11/17 21:36:44;;;;;;;33.55;18.45;;;;;;;0.50;100.00;97803.75;4109112;84;21005;-87
2022/11/17 21:42:45;;;;;;;34.70;18.95;;;;;;;0.51;100.00;97795.91;4123568;83;21101;-87
2022/11/17 21:49:01;;;;;;;29.77;17.92;;;;;;;0.52;100.00;97791.32;4092217;84;21093;-87
2022/11/17 21:55:10;;;;;;;36.83;18.92;;;;;;;0.49;100.00;97778.51;4095421;83;21962;-87
2022/11/17 22:01:15;;;;;;;28.67;16.30;;;;;;;0.47;100.00;97768.08;4032527;83;10000375;-87
2022/11/17 22:07:26;;;;;;;28.30;17.00;;;;;;;0.46;100.00;97767.87;4098748;84;21053;-87
2022/11/17 22:13:45;;;;;;;29.32;17.65;;;;;;;0.47;100.00;97772.11;4088382;84;21045;-86
2022/11/17 22:19:46;;;;;;;35.20;18.70;;;;;;;0.49;100.00;97779.86;4124420;84;20994;-86
2022/11/17 22:26:00;;;;;;;31.07;17.90;;;;;;;0.50;100.00;97769.33;4126804;85;20998;-87
2022/11/17 22:32:07;;;;;;;34.10;18.87;;;;;;;0.50;100.00;97770.67;4082685;84;21081;-87
2022/11/17 22:38:09;;;;;;;41.05;20.08;;;;;;;0.50;100.00;97773.36;4088364;85;21015;-87
2022/11/17 22:44:16;;;;;;;37.28;19.15;;;;;;;0.51;100.00;97762.26;4026225;85;21560;-87
2022/11/17 22:50:23;;;;;;;37.45;20.15;;;;;;;0.47;100.00;97761.93;4072137;85;22425;-87
2022/11/17 22:56:25;;;;;;;;;;;;;;;0.46;100.00;97750.36;4060224;84;21648;-86
2022/11/17 23:02:26;;;;;;;36.23;18.60;;;;;;;0.46;100.00;97750.92;4090701;85;20516;-87
2022/11/17 23:08:31;;;;;;;36.70;19.82;;;;;;;0.50;100.00;97757.21;4082658;84;21069;-87
2022/11/17 23:14:32;;;;;;;35.50;20.02;;;;;;;0.49;100.00;97746.20;4038939;86;21091;-86
2022/11/17 23:20:35;;;;;;;31.40;18.30;;;;;;;0.46;100.00;97735.55;4044822;86;21587;-87
2022/11/17 23:26:39;;;;;;;39.85;19.77;;;;;;;0.44;100.00;97729.72;4038357;85;21027;-86
2022/11/17 23:32:40;;;;;;;41.90;20.68;;;;;;;0.40;100.00;97723.45;4046223;86;21032;-86
2022/11/17 23:38:56;;;;;;;38.25;19.98;;;;;;;0.42;100.00;97717.18;4069631;85;21658;-87
2022/11/17 23:45:08;;;;;;;37.28;20.10;;;;;;;0.42;100.00;97711.00;4045159;84;21027;-87
2022/11/17 23:57:39;;;;;;;31.07;18.67;;;;;;;0.39;100.00;97700.91;4107232;84;21117;-87
